sensor_id;sensor_type;location;lat;lon;timestamp;P1;durP1;ratioP1;P2;durP2;ratioP2
34212;SDS011;20477;51.390;8.102;2022-07-21T00:02:19;34.83;;;28.35;;
34212;SDS011;20477;51.390;8.102;2022-07-21T00:04:46;34.50;;;28.33;;
34212;SDS011;20477;51.390;8.102;2022-07-21T00:07:13;34.83;;;27.90;;
34212;SDS011;20477;51.390;8.102;2022-07-21T00:09:41;35.35;;;28.02;;
34212;SDS011;20477;51.390;8.102;2022-07-21T00:12:09;38.72;;;29.35;;
34212;SDS011;20477;51.390;8.102;2022-07-21T00:14:36;32.45;;;28.95;;
34212;SDS011;20477;51.390;8.102;2022-07-21T00:17:03;21.92;;;17.90;;
34212;SDS011;20477;51.390;8.102;2022-07-21T00:19:30;20.10;;;14.25;;
34212;SDS011;20477;51.390;8.102;2022-07-21T00:21:57;16.48;;;12.52;;
34212;SDS011;20477;51.390;8.102;2022-07-21T00:24:25;14.45;;;9.25;;
34212;SDS011;20477;51.390;8.102;2022-07-21T00:26:53;9.77;;;8.07;;
34212;SDS011;20477;51.390;8.102;2022-07-21T00:29:23;10.82;;;8.20;;
34212;SDS011;20477;51.390;8.102;2022-07-21T00:31:50;12.13;;;9.00;;
34212;SDS011;20477;51.390;8.102;2022-07-21T00:34:17;11.40;;;8.18;;
34212;SDS011;20477;51.390;8.102;2022-07-21T00:36:44;8.52;;;7.40;;
34212;SDS011;20477;51.390;8.102;2022-07-21T00:39:11;11.35;;;6.47;;
34212;SDS011;20477;51.390;8.102;2022-07-21T00:41:39;8.25;;;6.93;;
34212;SDS011;20477;51.390;8.102;2022-07-21T00:44:06;8.07;;;6.90;;
34212;SDS011;20477;51.390;8.102;2022-07-21T00:46:34;9.30;;;6.25;;
34212;SDS011;20477;51.390;8.102;2022-07-21T00:49:01;10.27;;;7.05;;
34212;SDS011;20477;51.390;8.102;2022-07-21T00:51:28;8.90;;;6.35;;
34212;SDS011;20477;51.390;8.102;2022-07-21T00:53:55;8.80;;;5.57;;
34212;SDS011;20477;51.390;8.102;2022-07-21T00:56:22;14.43;;;9.60;;
34212;SDS011;20477;51.390;8.102;2022-07-21T00:58:49;10.85;;;7.00;;
34212;SDS011;20477;51.390;8.102;2022-07-21T01:01:16;7.65;;;6.20;;
34212;SDS011;20477;51.390;8.102;2022-07-21T01:03:43;8.68;;;6.40;;
34212;SDS011;20477;51.390;8.102;2022-07-21T01:06:11;8.32;;;6.78;;
34212;SDS011;20477;51.390;8.102;2022-07-21T01:08:37;8.75;;;6.63;;
34212;SDS011;20477;51.390;8.102;2022-07-21T01:11:28;7.57;;;6.78;;
34212;SDS011;20477;51.390;8.102;2022-07-21T01:13:59;10.80;;;6.78;;
34212;SDS011;20477;51.390;8.102;2022-07-21T01:16:26;9.77;;;6.50;;
34212;SDS011;20477;51.390;8.102;2022-07-21T01:18:56;9.77;;;7.25;;
34212;SDS011;20477;51.390;8.102;2022-07-21T01:21:29;10.95;;;6.85;;
34212;SDS011;20477;51.390;8.102;2022-07-21T01:23:56;9.20;;;7.53;;
34212;SDS011;20477;51.390;8.102;2022-07-21T01:26:23;11.88;;;7.70;;
34212;SDS011;20477;51.390;8.102;2022-07-21T01:28:50;14.75;;;6.88;;
34212;SDS011;20477;51.390;8.102;2022-07-21T01:31:18;9.15;;;6.07;;
34212;SDS011;20477;51.390;8.102;2022-07-21T01:33:46;9.25;;;5.50;;
34212;SDS011;20477;51.390;8.102;2022-07-21T01:36:13;7.95;;;6.05;;
34212;SDS011;20477;51.390;8.102;2022-07-21T01:38:42;8.60;;;4.75;;
34212;SDS011;20477;51.390;8.102;2022-07-21T01:41:29;6.85;;;5.47;;
34212;SDS011;20477;51.390;8.102;2022-07-21T01:43:56;6.50;;;5.45;;
34212;SDS011;20477;51.390;8.102;2022-07-21T01:46:24;7.20;;;5.95;;
34212;SDS011;20477;51.390;8.102;2022-07-21T01:48:53;8.35;;;6.75;;
34212;SDS011;20477;51.390;8.102;2022-07-21T01:51:21;11.02;;;6.97;;
34212;SDS011;20477;51.390;8.102;2022-07-21T01:53:48;8.75;;;6.20;;
34212;SDS011;20477;51.390;8.102;2022-07-21T01:56:22;10.57;;;6.70;;
34212;SDS011;20477;51.390;8.102;2022-07-21T01:58:50;8.40;;;6.72;;
34212;SDS011;20477;51.390;8.102;2022-07-21T02:01:19;9.80;;;7.47;;
34212;SDS011;20477;51.390;8.102;2022-07-21T02:03:47;14.80;;;8.70;;
34212;SDS011;20477;51.390;8.102;2022-07-21T02:06:15;13.80;;;9.40;;
34212;SDS011;20477;51.390;8.102;2022-07-21T02:08:42;14.75;;;10.55;;
34212;SDS011;20477;51.390;8.102;2022-07-21T02:11:09;13.25;;;11.60;;
34212;SDS011;20477;51.390;8.102;2022-07-21T02:13:36;13.05;;;11.48;;
34212;SDS011;20477;51.390;8.102;2022-07-21T02:16:03;18.48;;;13.18;;
34212;SDS011;20477;51.390;8.102;2022-07-21T02:18:31;18.60;;;11.85;;
34212;SDS011;20477;51.390;8.102;2022-07-21T02:20:58;13.98;;;12.48;;
34212;SDS011;20477;51.390;8.102;2022-07-21T02:23:25;19.55;;;14.73;;
34212;SDS011;20477;51.390;8.102;2022-07-21T02:25:53;18.80;;;14.25;;
34212;SDS011;20477;51.390;8.102;2022-07-21T02:28:20;20.88;;;15.10;;
34212;SDS011;20477;51.390;8.102;2022-07-21T02:30:47;20.45;;;13.90;;
34212;SDS011;20477;51.390;8.102;2022-07-21T02:33:15;19.35;;;14.65;;
34212;SDS011;20477;51.390;8.102;2022-07-21T02:35:42;22.60;;;15.07;;
34212;SDS011;20477;51.390;8.102;2022-07-21T02:38:09;22.45;;;14.18;;
34212;SDS011;20477;51.390;8.102;2022-07-21T02:40:37;23.52;;;13.55;;
34212;SDS011;20477;51.390;8.102;2022-07-21T02:43:04;19.42;;;13.52;;
34212;SDS011;20477;51.390;8.102;2022-07-21T02:45:32;17.75;;;12.40;;
34212;SDS011;20477;51.390;8.102;2022-07-21T02:50:30;14.75;;;10.43;;
34212;SDS011;20477;51.390;8.102;2022-07-21T02:52:59;19.55;;;12.13;;
34212;SDS011;20477;51.390;8.102;2022-07-21T02:55:32;14.35;;;11.30;;
34212;SDS011;20477;51.390;8.102;2022-07-21T02:58:18;12.30;;;9.82;;
34212;SDS011;20477;51.390;8.102;2022-07-21T03:00:57;13.00;;;10.00;;
34212;SDS011;20477;51.390;8.102;2022-07-21T03:03:28;12.18;;;8.80;;
34212;SDS011;20477;51.390;8.102;2022-07-21T03:06:00;13.73;;;9.18;;
34212;SDS011;20477;51.390;8.102;2022-07-21T03:08:28;15.15;;;8.55;;
34212;SDS011;20477;51.390;8.102;2022-07-21T03:10:56;13.43;;;8.30;;
34212;SDS011;20477;51.390;8.102;2022-07-21T03:13:23;11.70;;;8.38;;
34212;SDS011;20477;51.390;8.102;2022-07-21T03:15:51;10.18;;;7.68;;
34212;SDS011;20477;51.390;8.102;2022-07-21T03:18:19;9.93;;;7.53;;
34212;SDS011;20477;51.390;8.102;2022-07-21T03:20:47;11.77;;;7.40;;
34212;SDS011;20477;51.390;8.102;2022-07-21T03:23:13;7.80;;;6.22;;
34212;SDS011;20477;51.390;8.102;2022-07-21T03:25:41;9.02;;;6.50;;
34212;SDS011;20477;51.390;8.102;2022-07-21T03:28:08;8.57;;;6.65;;
34212;SDS011;20477;51.390;8.102;2022-07-21T03:30:37;7.07;;;5.80;;
34212;SDS011;20477;51.390;8.102;2022-07-21T03:33:04;10.93;;;6.68;;
34212;SDS011;20477;51.390;8.102;2022-07-21T03:35:31;10.98;;;6.70;;
34212;SDS011;20477;51.390;8.102;2022-07-21T03:37:59;10.30;;;5.68;;
34212;SDS011;20477;51.390;8.102;2022-07-21T03:40:27;7.35;;;5.80;;
34212;SDS011;20477;51.390;8.102;2022-07-21T03:42:56;9.48;;;5.85;;
34212;SDS011;20477;51.390;8.102;2022-07-21T03:45:24;8.70;;;5.47;;
34212;SDS011;20477;51.390;8.102;2022-07-21T03:47:51;7.63;;;5.90;;
34212;SDS011;20477;51.390;8.102;2022-07-21T03:50:19;8.35;;;5.00;;
34212;SDS011;20477;51.390;8.102;2022-07-21T03:52:46;5.70;;;5.10;;
34212;SDS011;20477;51.390;8.102;2022-07-21T03:55:13;8.95;;;5.57;;
34212;SDS011;20477;51.390;8.102;2022-07-21T03:57:53;8.23;;;5.80;;
34212;SDS011;20477;51.390;8.102;2022-07-21T04:00:34;8.93;;;6.07;;
34212;SDS011;20477;51.390;8.102;2022-07-21T04:03:03;5.82;;;5.22;;
34212;SDS011;20477;51.390;8.102;2022-07-21T04:05:31;7.20;;;5.15;;
34212;SDS011;20477;51.390;8.102;2022-07-21T04:07:58;5.90;;;5.07;;
34212;SDS011;20477;51.390;8.102;2022-07-21T04:10:29;6.45;;;5.20;;
34212;SDS011;20477;51.390;8.102;2022-07-21T04:12:59;8.52;;;5.43;;
34212;SDS011;20477;51.390;8.102;2022-07-21T04:15:27;8.38;;;5.75;;
34212;SDS011;20477;51.390;8.102;2022-07-21T04:17:54;12.00;;;5.05;;
34212;SDS011;20477;51.390;8.102;2022-07-21T04:20:22;11.02;;;4.88;;
34212;SDS011;20477;51.390;8.102;2022-07-21T04:22:49;7.32;;;6.35;;
34212;SDS011;20477;51.390;8.102;2022-07-21T04:25:17;8.48;;;5.40;;
34212;SDS011;20477;51.390;8.102;2022-07-21T04:27:45;11.15;;;6.10;;
34212;SDS011;20477;51.390;8.102;2022-07-21T04:30:14;6.25;;;5.55;;
34212;SDS011;20477;51.390;8.102;2022-07-21T04:32:43;7.78;;;5.50;;
34212;SDS011;20477;51.390;8.102;2022-07-21T04:35:10;6.30;;;5.70;;
34212;SDS011;20477;51.390;8.102;2022-07-21T04:37:37;6.63;;;5.70;;
34212;SDS011;20477;51.390;8.102;2022-07-21T04:40:07;6.55;;;5.15;;
34212;SDS011;20477;51.390;8.102;2022-07-21T04:42:37;7.95;;;5.93;;
34212;SDS011;20477;51.390;8.102;2022-07-21T04:45:05;7.90;;;5.30;;
34212;SDS011;20477;51.390;8.102;2022-07-21T04:47:48;7.07;;;4.70;;
34212;SDS011;20477;51.390;8.102;2022-07-21T04:50:22;6.75;;;4.70;;
34212;SDS011;20477;51.390;8.102;2022-07-21T04:52:53;10.25;;;4.90;;
34212;SDS011;20477;51.390;8.102;2022-07-21T04:55:20;5.10;;;4.10;;
34212;SDS011;20477;51.390;8.102;2022-07-21T04:57:49;5.03;;;3.90;;
34212;SDS011;20477;51.390;8.102;2022-07-21T05:00:19;5.50;;;4.00;;
34212;SDS011;20477;51.390;8.102;2022-07-21T05:02:50;4.47;;;3.90;;
34212;SDS011;20477;51.390;8.102;2022-07-21T05:05:18;7.22;;;4.30;;
34212;SDS011;20477;51.390;8.102;2022-07-21T05:07:45;8.70;;;5.90;;
34212;SDS011;20477;51.390;8.102;2022-07-21T05:10:13;4.45;;;3.95;;
34212;SDS011;20477;51.390;8.102;2022-07-21T05:12:41;7.38;;;3.80;;
34212;SDS011;20477;51.390;8.102;2022-07-21T05:15:08;4.93;;;3.90;;
34212;SDS011;20477;51.390;8.102;2022-07-21T05:17:37;6.35;;;4.00;;
34212;SDS011;20477;51.390;8.102;2022-07-21T05:20:04;5.45;;;3.45;;
34212;SDS011;20477;51.390;8.102;2022-07-21T05:22:33;6.35;;;3.58;;
34212;SDS011;20477;51.390;8.102;2022-07-21T05:25:00;5.93;;;2.97;;
34212;SDS011;20477;51.390;8.102;2022-07-21T05:27:26;3.90;;;3.47;;
34212;SDS011;20477;51.390;8.102;2022-07-21T05:29:53;5.28;;;3.35;;
34212;SDS011;20477;51.390;8.102;2022-07-21T05:32:21;3.45;;;3.10;;
34212;SDS011;20477;51.390;8.102;2022-07-21T05:34:47;6.25;;;3.42;;
34212;SDS011;20477;51.390;8.102;2022-07-21T05:37:14;4.72;;;3.83;;
34212;SDS011;20477;51.390;8.102;2022-07-21T05:39:41;6.35;;;4.18;;
34212;SDS011;20477;51.390;8.102;2022-07-21T05:42:09;4.82;;;4.22;;
34212;SDS011;20477;51.390;8.102;2022-07-21T05:44:36;5.10;;;4.60;;
34212;SDS011;20477;51.390;8.102;2022-07-21T05:47:03;4.93;;;4.13;;
34212;SDS011;20477;51.390;8.102;2022-07-21T05:49:30;7.10;;;4.90;;
34212;SDS011;20477;51.390;8.102;2022-07-21T05:51:56;6.70;;;5.07;;
34212;SDS011;20477;51.390;8.102;2022-07-21T05:54:23;5.65;;;5.05;;
34212;SDS011;20477;51.390;8.102;2022-07-21T05:56:50;8.27;;;6.07;;
34212;SDS011;20477;51.390;8.102;2022-07-21T05:59:18;6.78;;;5.32;;
34212;SDS011;20477;51.390;8.102;2022-07-21T06:01:45;6.95;;;5.55;;
34212;SDS011;20477;51.390;8.102;2022-07-21T06:04:12;6.07;;;5.47;;
34212;SDS011;20477;51.390;8.102;2022-07-21T06:06:40;7.05;;;5.95;;
34212;SDS011;20477;51.390;8.102;2022-07-21T06:09:10;7.90;;;6.18;;
34212;SDS011;20477;51.390;8.102;2022-07-21T06:11:36;8.40;;;5.78;;
34212;SDS011;20477;51.390;8.102;2022-07-21T06:14:04;7.13;;;6.18;;
34212;SDS011;20477;51.390;8.102;2022-07-21T06:16:31;6.93;;;6.22;;
34212;SDS011;20477;51.390;8.102;2022-07-21T06:18:58;8.07;;;7.28;;
34212;SDS011;20477;51.390;8.102;2022-07-21T06:21:28;8.05;;;6.93;;
34212;SDS011;20477;51.390;8.102;2022-07-21T06:23:55;9.52;;;7.85;;
34212;SDS011;20477;51.390;8.102;2022-07-21T06:26:24;9.70;;;8.52;;
34212;SDS011;20477;51.390;8.102;2022-07-21T06:28:52;10.68;;;7.80;;
34212;SDS011;20477;51.390;8.102;2022-07-21T06:31:19;13.65;;;8.20;;
34212;SDS011;20477;51.390;8.102;2022-07-21T06:33:46;11.32;;;8.77;;
34212;SDS011;20477;51.390;8.102;2022-07-21T06:36:13;9.20;;;7.97;;
34212;SDS011;20477;51.390;8.102;2022-07-21T06:38:40;8.48;;;7.25;;
34212;SDS011;20477;51.390;8.102;2022-07-21T06:41:07;10.88;;;8.00;;
34212;SDS011;20477;51.390;8.102;2022-07-21T06:43:34;10.13;;;8.75;;
34212;SDS011;20477;51.390;8.102;2022-07-21T06:46:01;9.13;;;8.07;;
34212;SDS011;20477;51.390;8.102;2022-07-21T06:48:28;10.50;;;8.80;;
34212;SDS011;20477;51.390;8.102;2022-07-21T06:50:55;11.95;;;9.07;;
34212;SDS011;20477;51.390;8.102;2022-07-21T06:53:23;11.32;;;9.43;;
34212;SDS011;20477;51.390;8.102;2022-07-21T06:55:50;11.43;;;9.05;;
34212;SDS011;20477;51.390;8.102;2022-07-21T06:58:27;10.18;;;9.20;;
34212;SDS011;20477;51.390;8.102;2022-07-21T07:00:54;10.68;;;9.57;;
34212;SDS011;20477;51.390;8.102;2022-07-21T07:03:23;10.30;;;9.30;;
34212;SDS011;20477;51.390;8.102;2022-07-21T07:05:50;11.90;;;9.25;;
34212;SDS011;20477;51.390;8.102;2022-07-21T07:08:17;14.13;;;9.77;;
34212;SDS011;20477;51.390;8.102;2022-07-21T07:10:44;11.02;;;9.38;;
34212;SDS011;20477;51.390;8.102;2022-07-21T07:13:12;9.70;;;8.35;;
34212;SDS011;20477;51.390;8.102;2022-07-21T07:16:01;11.05;;;8.68;;
34212;SDS011;20477;51.390;8.102;2022-07-21T07:18:29;9.25;;;8.40;;
34212;SDS011;20477;51.390;8.102;2022-07-21T07:20:56;9.98;;;8.45;;
34212;SDS011;20477;51.390;8.102;2022-07-21T07:23:23;11.70;;;8.30;;
34212;SDS011;20477;51.390;8.102;2022-07-21T07:25:50;9.02;;;8.13;;
34212;SDS011;20477;51.390;8.102;2022-07-21T07:28:17;10.38;;;8.95;;
34212;SDS011;20477;51.390;8.102;2022-07-21T07:30:43;8.85;;;7.65;;
34212;SDS011;20477;51.390;8.102;2022-07-21T07:33:10;10.38;;;7.93;;
34212;SDS011;20477;51.390;8.102;2022-07-21T07:35:37;10.07;;;7.47;;
34212;SDS011;20477;51.390;8.102;2022-07-21T07:38:07;8.32;;;7.32;;
34212;SDS011;20477;51.390;8.102;2022-07-21T07:40:35;8.90;;;6.75;;
34212;SDS011;20477;51.390;8.102;2022-07-21T07:43:03;11.82;;;7.50;;
34212;SDS011;20477;51.390;8.102;2022-07-21T07:45:36;10.43;;;6.97;;
34212;SDS011;20477;51.390;8.102;2022-07-21T07:48:04;7.55;;;6.55;;
34212;SDS011;20477;51.390;8.102;2022-07-21T07:50:32;6.80;;;6.20;;
34212;SDS011;20477;51.390;8.102;2022-07-21T07:52:59;5.90;;;5.35;;
34212;SDS011;20477;51.390;8.102;2022-07-21T07:55:25;8.18;;;5.95;;
34212;SDS011;20477;51.390;8.102;2022-07-21T07:57:52;8.45;;;5.70;;
34212;SDS011;20477;51.390;8.102;2022-07-21T08:00:19;7.32;;;6.00;;
34212;SDS011;20477;51.390;8.102;2022-07-21T08:03:06;8.07;;;5.85;;
34212;SDS011;20477;51.390;8.102;2022-07-21T08:05:33;6.63;;;5.53;;
34212;SDS011;20477;51.390;8.102;2022-07-21T08:08:00;8.13;;;5.40;;
34212;SDS011;20477;51.390;8.102;2022-07-21T08:10:28;6.03;;;5.40;;
34212;SDS011;20477;51.390;8.102;2022-07-21T08:15:40;8.18;;;5.93;;
34212;SDS011;20477;51.390;8.102;2022-07-21T08:18:07;6.55;;;5.25;;
34212;SDS011;20477;51.390;8.102;2022-07-21T08:20:35;8.90;;;6.10;;
34212;SDS011;20477;51.390;8.102;2022-07-21T08:23:03;6.60;;;5.95;;
34212;SDS011;20477;51.390;8.102;2022-07-21T08:25:30;6.47;;;4.93;;
34212;SDS011;20477;51.390;8.102;2022-07-21T08:27:58;6.30;;;5.65;;
34212;SDS011;20477;51.390;8.102;2022-07-21T08:30:25;7.55;;;5.47;;
34212;SDS011;20477;51.390;8.102;2022-07-21T08:32:56;7.47;;;5.13;;
34212;SDS011;20477;51.390;8.102;2022-07-21T08:35:24;6.07;;;5.10;;
34212;SDS011;20477;51.390;8.102;2022-07-21T08:37:53;7.20;;;5.47;;
34212;SDS011;20477;51.390;8.102;2022-07-21T08:40:22;7.60;;;4.72;;
34212;SDS011;20477;51.390;8.102;2022-07-21T08:42:50;5.60;;;5.10;;
34212;SDS011;20477;51.390;8.102;2022-07-21T08:45:18;5.60;;;5.10;;
34212;SDS011;20477;51.390;8.102;2022-07-21T08:47:45;5.45;;;4.95;;
34212;SDS011;20477;51.390;8.102;2022-07-21T08:50:12;5.78;;;5.18;;
34212;SDS011;20477;51.390;8.102;2022-07-21T08:52:41;5.65;;;4.45;;
34212;SDS011;20477;51.390;8.102;2022-07-21T08:55:08;9.20;;;4.55;;
34212;SDS011;20477;51.390;8.102;2022-07-21T08:57:37;9.38;;;4.63;;
34212;SDS011;20477;51.390;8.102;2022-07-21T09:00:06;5.68;;;4.20;;
34212;SDS011;20477;51.390;8.102;2022-07-21T09:02:35;5.10;;;4.38;;
34212;SDS011;20477;51.390;8.102;2022-07-21T09:05:04;6.35;;;4.00;;
34212;SDS011;20477;51.390;8.102;2022-07-21T09:10:33;4.60;;;3.83;;
34212;SDS011;20477;51.390;8.102;2022-07-21T09:13:03;6.22;;;4.78;;
34212;SDS011;20477;51.390;8.102;2022-07-21T09:15:32;4.93;;;4.22;;
34212;SDS011;20477;51.390;8.102;2022-07-21T09:18:07;5.43;;;3.83;;
34212;SDS011;20477;51.390;8.102;2022-07-21T09:20:39;3.90;;;3.35;;
34212;SDS011;20477;51.390;8.102;2022-07-21T09:23:15;5.68;;;3.50;;
34212;SDS011;20477;51.390;8.102;2022-07-21T09:25:53;5.05;;;3.63;;
34212;SDS011;20477;51.390;8.102;2022-07-21T09:28:24;4.38;;;3.22;;
34212;SDS011;20477;51.390;8.102;2022-07-21T09:33:29;3.20;;;2.90;;
34212;SDS011;20477;51.390;8.102;2022-07-21T09:38:25;4.97;;;3.00;;
34212;SDS011;20477;51.390;8.102;2022-07-21T09:40:54;5.38;;;3.00;;
34212;SDS011;20477;51.390;8.102;2022-07-21T09:43:32;7.18;;;3.20;;
34212;SDS011;20477;51.390;8.102;2022-07-21T09:46:04;8.73;;;3.95;;
34212;SDS011;20477;51.390;8.102;2022-07-21T09:48:35;3.13;;;2.72;;
34212;SDS011;20477;51.390;8.102;2022-07-21T09:53:58;3.03;;;2.77;;
34212;SDS011;20477;51.390;8.102;2022-07-21T09:56:27;2.70;;;2.50;;
34212;SDS011;20477;51.390;8.102;2022-07-21T09:59:00;2.60;;;2.40;;
34212;SDS011;20477;51.390;8.102;2022-07-21T10:01:27;6.22;;;3.25;;
34212;SDS011;20477;51.390;8.102;2022-07-21T10:03:56;2.50;;;2.30;;
34212;SDS011;20477;51.390;8.102;2022-07-21T10:06:35;2.88;;;2.30;;
34212;SDS011;20477;51.390;8.102;2022-07-21T10:09:04;2.75;;;2.47;;
34212;SDS011;20477;51.390;8.102;2022-07-21T10:11:35;11.13;;;3.70;;
34212;SDS011;20477;51.390;8.102;2022-07-21T10:14:02;4.28;;;2.95;;
34212;SDS011;20477;51.390;8.102;2022-07-21T10:16:29;5.65;;;3.05;;
34212;SDS011;20477;51.390;8.102;2022-07-21T10:27:03;3.28;;;2.58;;
34212;SDS011;20477;51.390;8.102;2022-07-21T10:32:19;3.67;;;3.00;;
34212;SDS011;20477;51.390;8.102;2022-07-21T10:34:51;4.95;;;2.78;;
34212;SDS011;20477;51.390;8.102;2022-07-21T10:40:50;4.07;;;2.45;;
34212;SDS011;20477;51.390;8.102;2022-07-21T10:45:33;3.17;;;2.80;;
34212;SDS011;20477;51.390;8.102;2022-07-21T10:48:01;2.80;;;2.60;;
34212;SDS011;20477;51.390;8.102;2022-07-21T10:55:29;5.07;;;2.65;;
34212;SDS011;20477;51.390;8.102;2022-07-21T11:00:47;3.95;;;2.85;;
34212;SDS011;20477;51.390;8.102;2022-07-21T11:03:38;3.60;;;3.20;;
34212;SDS011;20477;51.390;8.102;2022-07-21T11:21:59;4.22;;;2.78;;
34212;SDS011;20477;51.390;8.102;2022-07-21T11:24:39;2.58;;;2.35;;
34212;SDS011;20477;51.390;8.102;2022-07-21T11:27:08;5.47;;;2.78;;
34212;SDS011;20477;51.390;8.102;2022-07-21T11:29:40;3.35;;;2.70;;
34212;SDS011;20477;51.390;8.102;2022-07-21T11:32:15;4.03;;;2.40;;
34212;SDS011;20477;51.390;8.102;2022-07-21T11:34:55;3.75;;;2.33;;
34212;SDS011;20477;51.390;8.102;2022-07-21T11:37:42;3.97;;;2.40;;
34212;SDS011;20477;51.390;8.102;2022-07-21T11:40:16;2.83;;;2.50;;
34212;SDS011;20477;51.390;8.102;2022-07-21T11:42:46;5.03;;;3.33;;
34212;SDS011;20477;51.390;8.102;2022-07-21T11:45:15;2.88;;;2.53;;
34212;SDS011;20477;51.390;8.102;2022-07-21T11:47:43;3.22;;;2.47;;
34212;SDS011;20477;51.390;8.102;2022-07-21T11:50:17;3.25;;;2.53;;
34212;SDS011;20477;51.390;8.102;2022-07-21T11:52:44;6.75;;;3.00;;
34212;SDS011;20477;51.390;8.102;2022-07-21T11:55:11;4.30;;;3.20;;
34212;SDS011;20477;51.390;8.102;2022-07-21T11:57:43;4.55;;;3.22;;
34212;SDS011;20477;51.390;8.102;2022-07-21T12:00:12;6.10;;;3.25;;
34212;SDS011;20477;51.390;8.102;2022-07-21T12:02:47;7.05;;;3.75;;
34212;SDS011;20477;51.390;8.102;2022-07-21T12:05:15;4.13;;;3.35;;
34212;SDS011;20477;51.390;8.102;2022-07-21T12:07:48;6.07;;;3.88;;
34212;SDS011;20477;51.390;8.102;2022-07-21T12:10:21;6.00;;;3.80;;
34212;SDS011;20477;51.390;8.102;2022-07-21T12:13:03;6.97;;;4.18;;
34212;SDS011;20477;51.390;8.102;2022-07-21T12:15:33;5.88;;;4.13;;
34212;SDS011;20477;51.390;8.102;2022-07-21T12:18:05;7.25;;;3.95;;
34212;SDS011;20477;51.390;8.102;2022-07-21T12:20:38;6.88;;;3.92;;
34212;SDS011;20477;51.390;8.102;2022-07-21T12:23:23;5.47;;;4.00;;
34212;SDS011;20477;51.390;8.102;2022-07-21T12:25:51;7.22;;;3.55;;
34212;SDS011;20477;51.390;8.102;2022-07-21T12:28:40;5.85;;;4.05;;
34212;SDS011;20477;51.390;8.102;2022-07-21T12:31:21;4.63;;;3.83;;
34212;SDS011;20477;51.390;8.102;2022-07-21T12:33:50;7.75;;;4.32;;
34212;SDS011;20477;51.390;8.102;2022-07-21T12:36:44;4.47;;;3.75;;
34212;SDS011;20477;51.390;8.102;2022-07-21T12:39:19;6.18;;;4.32;;
34212;SDS011;20477;51.390;8.102;2022-07-21T12:42:11;4.88;;;3.92;;
34212;SDS011;20477;51.390;8.102;2022-07-21T12:44:53;6.43;;;4.18;;
34212;SDS011;20477;51.390;8.102;2022-07-21T12:47:22;6.53;;;4.22;;
34212;SDS011;20477;51.390;8.102;2022-07-21T12:50:00;9.30;;;4.55;;
34212;SDS011;20477;51.390;8.102;2022-07-21T12:52:39;6.47;;;4.55;;
34212;SDS011;20477;51.390;8.102;2022-07-21T12:55:06;6.68;;;4.45;;
34212;SDS011;20477;51.390;8.102;2022-07-21T12:57:33;8.02;;;4.65;;
34212;SDS011;20477;51.390;8.102;2022-07-21T13:00:03;5.20;;;4.50;;
34212;SDS011;20477;51.390;8.102;2022-07-21T13:02:44;7.35;;;5.00;;
34212;SDS011;20477;51.390;8.102;2022-07-21T13:05:21;7.88;;;5.18;;
34212;SDS011;20477;51.390;8.102;2022-07-21T13:07:51;9.65;;;4.97;;
34212;SDS011;20477;51.390;8.102;2022-07-21T13:10:18;6.80;;;5.10;;
34212;SDS011;20477;51.390;8.102;2022-07-21T13:12:47;5.18;;;4.68;;
34212;SDS011;20477;51.390;8.102;2022-07-21T13:15:15;8.75;;;5.68;;
34212;SDS011;20477;51.390;8.102;2022-07-21T13:17:47;10.75;;;5.80;;
34212;SDS011;20477;51.390;8.102;2022-07-21T13:20:15;12.40;;;5.70;;
34212;SDS011;20477;51.390;8.102;2022-07-21T13:22:43;10.07;;;6.45;;
34212;SDS011;20477;51.390;8.102;2022-07-21T13:25:10;11.73;;;6.32;;
34212;SDS011;20477;51.390;8.102;2022-07-21T13:27:37;7.22;;;5.75;;
34212;SDS011;20477;51.390;8.102;2022-07-21T13:30:05;9.30;;;5.72;;
34212;SDS011;20477;51.390;8.102;2022-07-21T13:32:34;7.25;;;5.57;;
34212;SDS011;20477;51.390;8.102;2022-07-21T13:35:02;8.45;;;6.10;;
34212;SDS011;20477;51.390;8.102;2022-07-21T13:37:50;15.48;;;6.32;;
34212;SDS011;20477;51.390;8.102;2022-07-21T13:40:17;8.00;;;6.25;;
34212;SDS011;20477;51.390;8.102;2022-07-21T13:43:04;9.98;;;6.55;;
34212;SDS011;20477;51.390;8.102;2022-07-21T13:45:52;10.73;;;6.05;;
34212;SDS011;20477;51.390;8.102;2022-07-21T13:48:19;11.00;;;6.50;;
34212;SDS011;20477;51.390;8.102;2022-07-21T13:50:46;7.05;;;6.07;;
34212;SDS011;20477;51.390;8.102;2022-07-21T13:53:13;7.65;;;6.57;;
34212;SDS011;20477;51.390;8.102;2022-07-21T13:55:40;8.25;;;6.07;;
34212;SDS011;20477;51.390;8.102;2022-07-21T13:58:07;9.88;;;7.65;;
34212;SDS011;20477;51.390;8.102;2022-07-21T14:00:35;6.55;;;5.85;;
34212;SDS011;20477;51.390;8.102;2022-07-21T14:03:08;6.93;;;6.05;;
34212;SDS011;20477;51.390;8.102;2022-07-21T14:05:35;10.13;;;6.90;;
34212;SDS011;20477;51.390;8.102;2022-07-21T14:08:02;11.85;;;7.05;;
34212;SDS011;20477;51.390;8.102;2022-07-21T14:10:29;11.38;;;7.10;;
34212;SDS011;20477;51.390;8.102;2022-07-21T14:12:59;7.82;;;6.13;;
34212;SDS011;20477;51.390;8.102;2022-07-21T14:15:26;8.27;;;6.10;;
34212;SDS011;20477;51.390;8.102;2022-07-21T14:17:53;10.25;;;6.32;;
34212;SDS011;20477;51.390;8.102;2022-07-21T14:20:23;9.48;;;5.88;;
34212;SDS011;20477;51.390;8.102;2022-07-21T14:22:52;10.20;;;6.30;;
34212;SDS011;20477;51.390;8.102;2022-07-21T14:25:22;7.80;;;5.55;;
34212;SDS011;20477;51.390;8.102;2022-07-21T14:27:51;8.75;;;6.22;;
34212;SDS011;20477;51.390;8.102;2022-07-21T14:30:20;6.85;;;4.60;;
34212;SDS011;20477;51.390;8.102;2022-07-21T14:32:53;6.07;;;4.22;;
34212;SDS011;20477;51.390;8.102;2022-07-21T14:35:21;4.60;;;3.85;;
34212;SDS011;20477;51.390;8.102;2022-07-21T14:37:48;4.60;;;3.55;;
34212;SDS011;20477;51.390;8.102;2022-07-21T14:40:16;5.18;;;4.20;;
34212;SDS011;20477;51.390;8.102;2022-07-21T14:42:45;4.95;;;3.97;;
34212;SDS011;20477;51.390;8.102;2022-07-21T14:45:14;5.72;;;4.28;;
34212;SDS011;20477;51.390;8.102;2022-07-21T14:47:51;5.25;;;3.80;;
34212;SDS011;20477;51.390;8.102;2022-07-21T14:50:19;6.97;;;3.22;;
34212;SDS011;20477;51.390;8.102;2022-07-21T14:55:20;6.10;;;3.47;;
34212;SDS011;20477;51.390;8.102;2022-07-21T14:57:49;5.30;;;4.13;;
34212;SDS011;20477;51.390;8.102;2022-07-21T15:00:17;7.03;;;3.47;;
34212;SDS011;20477;51.390;8.102;2022-07-21T15:02:46;3.30;;;3.00;;
34212;SDS011;20477;51.390;8.102;2022-07-21T15:05:14;3.88;;;2.80;;
34212;SDS011;20477;51.390;8.102;2022-07-21T15:07:44;3.30;;;2.80;;
34212;SDS011;20477;51.390;8.102;2022-07-21T15:10:12;3.92;;;3.00;;
34212;SDS011;20477;51.390;8.102;2022-07-21T15:12:40;3.20;;;2.70;;
34212;SDS011;20477;51.390;8.102;2022-07-21T15:15:08;4.88;;;2.53;;
34212;SDS011;20477;51.390;8.102;2022-07-21T15:17:36;2.50;;;2.30;;
34212;SDS011;20477;51.390;8.102;2022-07-21T15:20:03;3.08;;;2.30;;
34212;SDS011;20477;51.390;8.102;2022-07-21T15:22:38;2.92;;;2.33;;
34212;SDS011;20477;51.390;8.102;2022-07-21T15:25:06;2.80;;;2.55;;
34212;SDS011;20477;51.390;8.102;2022-07-21T15:27:39;2.95;;;2.65;;
34212;SDS011;20477;51.390;8.102;2022-07-21T15:30:07;3.60;;;2.22;;
34212;SDS011;20477;51.390;8.102;2022-07-21T15:32:36;6.07;;;2.55;;
34212;SDS011;20477;51.390;8.102;2022-07-21T15:35:03;2.70;;;2.50;;
34212;SDS011;20477;51.390;8.102;2022-07-21T15:37:32;2.38;;;2.17;;
34212;SDS011;20477;51.390;8.102;2022-07-21T15:40:00;2.53;;;2.33;;
34212;SDS011;20477;51.390;8.102;2022-07-21T15:42:30;3.38;;;2.80;;
34212;SDS011;20477;51.390;8.102;2022-07-21T15:45:00;2.97;;;2.65;;
34212;SDS011;20477;51.390;8.102;2022-07-21T15:47:29;6.70;;;4.13;;
34212;SDS011;20477;51.390;8.102;2022-07-21T15:49:58;6.18;;;5.20;;
34212;SDS011;20477;51.390;8.102;2022-07-21T15:52:27;6.88;;;4.85;;
34212;SDS011;20477;51.390;8.102;2022-07-21T15:54:55;5.82;;;5.07;;
34212;SDS011;20477;51.390;8.102;2022-07-21T15:57:26;5.25;;;4.55;;